EBBR

Brussels Airport

ICAO Code EBBR
IATA Code BRU
Name Brussels Airport
Location Brussels, Flanders, BE
Elevation 184 Feet / 56.1 Meters
Latitude 50.90140152
Longitude 4.48443985
METAR EBBR 240520Z 09002KT 9999 BKN019 03/M00 Q1034 NOSIG
Extra information Display Charts and CFS
Display NOTAMS
Runway Length Width Surface Elevation
01 9800 ft 164 ft ASP 183 ft
07L 11936 ft 148 ft ASP 129 ft
07R 10535 ft 148 ft ASP 175 ft
19 9800 ft 164 ft ASP 113 ft
25R 11936 ft 148 ft ASP 110 ft
25L 10535 ft 148 ft ASP 159 ft